Terminal Aerodrome Forecast
Issued by NWS Des Moines, IA

Home | Current Version | Previous Version | Text Only | Print | Product List | Glossary On
Versions: 1 2 3 4 5 6 7 8 9 10 11 12 13 14 15 16 17 18 19 20 21 22 23 24 25 26
000
FTUS43 KDMX 251133
TAFDSM
TAF
KDSM 251133Z 2512/2612 11015G21KT P6SM VCSH BKN040
     FM251500 17015KT P6SM SCT050 BKN150
     FM251900 20013KT P6SM SCT050
     FM260100 16006KT P6SM SCT150
     FM260800 VRB05KT 5SM BR SCT200=

USA.gov is the U.S. government's official web portal to all federal, state and local government web resources and services.